createdAt,value
2023-03-06T00:00:30.027Z,3.10
2023-03-06T00:02:56.869Z,3.20
2023-03-06T00:05:23.723Z,3.20
2023-03-06T00:07:50.423Z,3.10
2023-03-06T00:10:21.055Z,3.10
2023-03-06T00:12:47.726Z,3.10
2023-03-06T00:15:14.617Z,3.10
2023-03-06T00:17:41.617Z,3.10
2023-03-06T00:20:10.957Z,3.10
2023-03-06T00:22:38.066Z,3.10
2023-03-06T00:25:06.042Z,3.10
2023-03-06T00:27:33.414Z,3.10
2023-03-06T00:30:01.048Z,3.00
2023-03-06T00:32:28.835Z,3.00
2023-03-06T00:34:56.333Z,3.00
2023-03-06T00:37:24.917Z,2.90
2023-03-06T00:39:51.880Z,2.90
2023-03-06T00:42:19.425Z,2.90
2023-03-06T00:44:46.563Z,2.90
2023-03-06T00:47:16.981Z,2.90
2023-03-06T00:49:46.561Z,2.90
2023-03-06T00:52:13.863Z,2.90
2023-03-06T00:54:41.105Z,2.80
2023-03-06T00:57:07.861Z,2.80
2023-03-06T00:59:35.011Z,2.70
2023-03-06T01:02:02.070Z,2.70
2023-03-06T01:04:28.750Z,2.70
2023-03-06T01:06:55.450Z,2.60
2023-03-06T01:09:24.258Z,2.60
2023-03-06T01:11:53.818Z,2.70
2023-03-06T01:14:20.821Z,2.70
2023-03-06T01:16:47.999Z,2.70
2023-03-06T01:19:17.275Z,2.70
2023-03-06T01:21:45.112Z,2.70
2023-03-06T01:24:11.709Z,2.70
2023-03-06T01:26:38.421Z,2.70
2023-03-06T01:29:06.214Z,2.70
2023-03-06T01:31:33.306Z,2.70
2023-03-06T01:34:00.121Z,2.80
2023-03-06T01:36:26.832Z,2.80
2023-03-06T01:38:53.442Z,2.80
2023-03-06T01:41:21.438Z,2.70
2023-03-06T01:43:48.546Z,2.70
2023-03-06T01:46:33.684Z,2.70
2023-03-06T01:49:12.533Z,2.70
2023-03-06T01:52:01.376Z,2.60
2023-03-06T01:54:49.192Z,2.60
2023-03-06T01:57:28.844Z,2.60
2023-03-06T02:00:11.481Z,2.50
2023-03-06T02:02:51.630Z,2.50
2023-03-06T02:05:18.292Z,2.40
2023-03-06T02:07:46.697Z,2.40
2023-03-06T02:10:16.704Z,2.40
2023-03-06T02:12:45.532Z,2.40
2023-03-06T02:15:15.011Z,2.50
2023-03-06T02:17:43.441Z,2.50
2023-03-06T02:20:23.995Z,2.50
2023-03-06T02:23:16.580Z,2.50
2023-03-06T02:25:44.764Z,2.50
2023-03-06T02:28:14.725Z,2.50
2023-03-06T02:30:43.262Z,2.50
2023-03-06T02:33:14.142Z,2.50
2023-03-06T02:35:47.169Z,2.50
2023-03-06T02:38:17.445Z,2.50
2023-03-06T02:40:48.461Z,2.40
2023-03-06T02:43:18.448Z,2.40
2023-03-06T02:45:48.144Z,2.40
2023-03-06T02:48:16.365Z,2.30
2023-03-06T02:50:44.367Z,2.30
2023-03-06T02:53:13.252Z,2.30
2023-03-06T02:55:40.482Z,2.30
2023-03-06T02:58:07.958Z,2.30
2023-03-06T03:00:34.722Z,2.30
2023-03-06T03:03:04.763Z,2.30
2023-03-06T03:05:31.793Z,2.30
2023-03-06T03:08:05.936Z,2.20
2023-03-06T03:10:33.632Z,2.20
2023-03-06T03:13:00.326Z,2.20
2023-03-06T03:15:27.160Z,2.30
2023-03-06T03:17:54.248Z,2.30
2023-03-06T03:20:21.964Z,2.30
2023-03-06T03:22:54.868Z,2.20
2023-03-06T03:25:23.053Z,2.20
2023-03-06T03:27:50.823Z,2.20
2023-03-06T03:30:17.608Z,2.20
2023-03-06T03:32:44.894Z,2.30
2023-03-06T03:35:12.937Z,2.20
2023-03-06T03:37:40.935Z,2.20
2023-03-06T03:40:10.139Z,2.10
2023-03-06T03:42:37.008Z,2.10
2023-03-06T03:45:05.854Z,2.10
2023-03-06T03:47:32.613Z,2.10
2023-03-06T03:50:00.536Z,2.10
2023-03-06T03:52:27.323Z,2.00
2023-03-06T03:54:54.054Z,1.90
2023-03-06T03:57:20.812Z,1.80
2023-03-06T03:59:51.083Z,1.70
2023-03-06T04:02:23.781Z,1.70
2023-03-06T04:04:58.855Z,1.60
2023-03-06T04:07:26.303Z,1.60
2023-03-06T04:09:53.718Z,1.60
2023-03-06T04:12:20.505Z,1.60
2023-03-06T04:14:47.721Z,1.50
2023-03-06T04:17:14.726Z,1.50
2023-03-06T04:19:41.418Z,1.50
2023-03-06T04:22:08.037Z,1.60
2023-03-06T04:24:37.880Z,1.60
2023-03-06T04:27:04.820Z,1.50
2023-03-06T04:29:31.602Z,1.50
2023-03-06T04:31:58.230Z,1.50
2023-03-06T04:34:24.906Z,1.50
2023-03-06T04:36:51.658Z,1.40
2023-03-06T04:39:18.273Z,1.50
2023-03-06T04:41:44.875Z,1.30
2023-03-06T04:44:11.681Z,1.40
2023-03-06T04:46:38.586Z,1.30
2023-03-06T04:49:05.192Z,1.20
2023-03-06T04:51:31.904Z,1.20
2023-03-06T04:53:58.513Z,1.10
2023-03-06T04:56:25.140Z,1.20
2023-03-06T04:58:51.826Z,1.20
2023-03-06T05:01:18.545Z,1.30
2023-03-06T05:03:45.361Z,1.30
2023-03-06T05:06:12.204Z,1.40
2023-03-06T05:08:38.999Z,1.50
2023-03-06T05:11:05.715Z,1.60
2023-03-06T05:13:32.306Z,1.60
2023-03-06T05:16:06.366Z,1.70
2023-03-06T05:18:34.451Z,1.70
2023-03-06T05:21:01.585Z,1.70
2023-03-06T05:23:29.845Z,1.70
2023-03-06T05:25:57.058Z,1.70
2023-03-06T05:28:23.793Z,1.60
2023-03-06T05:30:50.382Z,1.60
2023-03-06T05:33:17.038Z,1.70
2023-03-06T05:35:47.956Z,1.70
2023-03-06T05:38:15.890Z,1.70
2023-03-06T05:40:44.254Z,1.70
2023-03-06T05:43:11.901Z,1.70
2023-03-06T05:45:40.488Z,1.70
2023-03-06T05:48:07.771Z,1.80
2023-03-06T05:50:34.655Z,1.70
2023-03-06T05:53:01.532Z,1.70
2023-03-06T05:55:29.496Z,1.70
2023-03-06T05:57:56.233Z,1.70
2023-03-06T06:00:23.329Z,1.70
2023-03-06T06:02:50.065Z,1.70
2023-03-06T06:05:16.758Z,1.70
2023-03-06T06:07:43.586Z,1.70
2023-03-06T06:10:11.499Z,1.70
2023-03-06T06:12:38.530Z,1.70
2023-03-06T06:15:06.504Z,1.70
2023-03-06T06:17:33.258Z,1.80
2023-03-06T06:19:59.841Z,1.80
2023-03-06T06:22:26.478Z,1.80
2023-03-06T06:24:53.002Z,1.80
2023-03-06T06:27:19.574Z,1.80
2023-03-06T06:29:46.164Z,1.80
2023-03-06T06:32:12.782Z,1.90
2023-03-06T06:34:39.403Z,1.90
2023-03-06T06:37:06.070Z,1.90
2023-03-06T06:39:32.621Z,1.90
2023-03-06T06:42:20.271Z,1.90
2023-03-06T06:44:45.703Z,2.00
2023-03-06T06:47:27.633Z,2.00
2023-03-06T06:49:55.234Z,2.00
2023-03-06T06:52:22.652Z,2.00
2023-03-06T06:54:49.215Z,2.10
2023-03-06T06:57:16.153Z,2.10
2023-03-06T06:59:42.703Z,2.10
2023-03-06T07:02:13.606Z,2.20
2023-03-06T07:04:52.327Z,2.30
2023-03-06T07:07:24.745Z,2.20
2023-03-06T07:09:52.061Z,2.30
2023-03-06T07:12:18.574Z,2.30
2023-03-06T07:14:45.162Z,2.30
2023-03-06T07:17:11.682Z,2.40
2023-03-06T07:19:38.734Z,2.30
2023-03-06T07:22:07.497Z,2.30
2023-03-06T07:24:34.284Z,2.30
2023-03-06T07:27:00.830Z,2.30
2023-03-06T07:29:27.418Z,2.30
2023-03-06T07:31:53.980Z,2.20
2023-03-06T07:34:20.500Z,2.20
2023-03-06T07:36:47.124Z,2.30
2023-03-06T07:39:13.783Z,2.30
2023-03-06T07:41:40.357Z,2.30
2023-03-06T07:44:06.963Z,2.30
2023-03-06T07:46:33.497Z,2.30
2023-03-06T07:49:00.151Z,2.40
2023-03-06T07:51:26.746Z,2.40
2023-03-06T07:53:53.554Z,2.40
2023-03-06T07:56:20.147Z,2.40
2023-03-06T07:58:47.394Z,2.30
2023-03-06T08:01:15.873Z,2.30
2023-03-06T08:03:42.873Z,2.30
2023-03-06T08:06:10.853Z,2.30
2023-03-06T08:08:39.351Z,2.30
2023-03-06T08:11:06.742Z,2.30
2023-03-06T08:13:33.746Z,2.40
2023-03-06T08:16:00.475Z,2.30
2023-03-06T08:18:27.698Z,2.40
2023-03-06T08:21:04.449Z,2.30
2023-03-06T08:23:31.242Z,2.30
2023-03-06T08:26:01.683Z,2.40
2023-03-06T08:28:31.284Z,2.40
2023-03-06T08:30:58.306Z,2.30
2023-03-06T08:33:24.970Z,2.30
2023-03-06T08:35:52.330Z,2.20
2023-03-06T08:38:18.987Z,2.20
2023-03-06T08:40:45.518Z,2.10
2023-03-06T08:43:14.116Z,2.10
2023-03-06T08:45:40.907Z,2.00
2023-03-06T08:48:07.519Z,2.00
2023-03-06T08:50:34.115Z,2.00
2023-03-06T08:53:00.743Z,2.00
2023-03-06T08:55:28.072Z,2.10
2023-03-06T08:57:54.599Z,2.00
2023-03-06T09:00:21.495Z,2.00
2023-03-06T09:02:48.091Z,2.00
2023-03-06T09:05:14.649Z,2.00
2023-03-06T09:07:41.218Z,2.00
2023-03-06T09:10:08.407Z,2.10
2023-03-06T09:12:48.779Z,2.10
2023-03-06T09:15:16.791Z,2.10
2023-03-06T09:17:43.365Z,2.10
2023-03-06T09:20:10.844Z,2.10
2023-03-06T09:22:37.711Z,2.10
2023-03-06T09:25:05.185Z,2.10
2023-03-06T09:27:31.851Z,2.10
2023-03-06T09:29:58.362Z,2.20
2023-03-06T09:32:25.793Z,2.10
2023-03-06T09:34:52.366Z,2.10
2023-03-06T09:37:18.905Z,2.10
2023-03-06T09:39:45.464Z,2.20
2023-03-06T09:42:23.447Z,2.20
2023-03-06T09:44:54.452Z,2.10
2023-03-06T09:47:31.565Z,2.10
2023-03-06T09:50:21.133Z,2.20
2023-03-06T09:53:07.320Z,2.00
2023-03-06T09:55:36.557Z,2.00
2023-03-06T09:58:14.034Z,1.90
2023-03-06T10:00:54.630Z,1.80
2023-03-06T10:03:39.538Z,1.80
2023-03-06T10:06:17.561Z,1.70
2023-03-06T10:08:44.062Z,1.70
2023-03-06T10:11:11.035Z,1.70
2023-03-06T10:13:45.611Z,1.70
2023-03-06T10:16:17.446Z,1.70
2023-03-06T10:18:44.092Z,1.80
2023-03-06T10:21:20.103Z,1.80
2023-03-06T10:24:05.538Z,1.90
2023-03-06T10:26:37.451Z,1.90
2023-03-06T10:29:03.998Z,1.90
2023-03-06T10:31:33.197Z,1.90
2023-03-06T10:34:18.054Z,1.90
2023-03-06T10:36:44.760Z,1.80
2023-03-06T10:39:19.752Z,1.70
2023-03-06T10:41:47.312Z,1.80
2023-03-06T10:44:13.827Z,1.90
2023-03-06T10:46:44.664Z,1.90
2023-03-06T10:49:28.657Z,1.90
2023-03-06T10:52:00.112Z,1.90
2023-03-06T10:54:27.359Z,1.90
2023-03-06T10:56:54.024Z,2.00
2023-03-06T10:59:22.916Z,2.00
2023-03-06T11:01:50.744Z,2.10
2023-03-06T11:04:23.717Z,2.20
2023-03-06T11:07:05.401Z,2.40
2023-03-06T11:09:33.286Z,2.50
2023-03-06T11:12:20.041Z,2.60
2023-03-06T11:14:46.726Z,2.60
2023-03-06T11:17:30.810Z,2.70
2023-03-06T11:20:15.295Z,2.60
2023-03-06T11:22:42.734Z,2.50
2023-03-06T11:25:11.926Z,2.40
2023-03-06T11:27:42.577Z,2.40
2023-03-06T11:30:20.298Z,2.40
2023-03-06T11:32:50.260Z,2.50
2023-03-06T11:35:19.999Z,2.50
2023-03-06T11:37:46.517Z,2.60
2023-03-06T11:40:17.413Z,2.60
2023-03-06T11:42:53.123Z,2.40
2023-03-06T11:45:26.266Z,2.40
2023-03-06T11:48:11.807Z,2.30
2023-03-06T11:50:41.195Z,2.20
2023-03-06T11:53:12.067Z,2.10
2023-03-06T11:55:38.563Z,2.10
2023-03-06T11:58:23.647Z,2.00
2023-03-06T12:00:53.306Z,2.10
2023-03-06T12:03:38.493Z,2.40
2023-03-06T12:06:18.268Z,2.80
2023-03-06T12:09:05.777Z,3.40
2023-03-06T12:11:40.620Z,3.90
2023-03-06T12:14:16.173Z,4.90
2023-03-06T12:17:06.753Z,5.20
2023-03-06T12:19:46.157Z,5.10
2023-03-06T12:22:18.956Z,5.50
2023-03-06T12:24:48.596Z,5.00
2023-03-06T12:27:18.235Z,5.00
2023-03-06T12:29:47.910Z,4.50
2023-03-06T12:32:21.146Z,4.40
2023-03-06T12:35:00.831Z,4.40
2023-03-06T12:37:50.996Z,4.90
2023-03-06T12:40:36.472Z,5.10
2023-03-06T12:43:21.766Z,5.10
2023-03-06T12:45:49.680Z,5.00
2023-03-06T12:48:18.954Z,4.90
2023-03-06T12:50:45.741Z,4.90
2023-03-06T12:53:14.227Z,4.90
2023-03-06T12:55:42.174Z,4.70
2023-03-06T12:58:27.650Z,4.50
2023-03-06T13:01:03.633Z,4.50
2023-03-06T13:04:09.068Z,4.60
2023-03-06T13:06:50.165Z,4.70
2023-03-06T13:09:25.662Z,4.90
2023-03-06T13:11:58.724Z,4.70
2023-03-06T13:14:26.738Z,4.50
2023-03-06T13:16:53.398Z,4.30
2023-03-06T13:19:21.991Z,4.30
2023-03-06T13:21:54.748Z,4.30
2023-03-06T13:24:22.911Z,4.30
2023-03-06T13:26:59.854Z,4.10
2023-03-06T13:29:38.252Z,4.30
2023-03-06T13:32:06.716Z,4.50
2023-03-06T13:34:33.276Z,4.70
2023-03-06T13:37:24.568Z,5.10
2023-03-06T13:39:58.350Z,5.00
2023-03-06T13:42:36.615Z,5.70
2023-03-06T13:45:25.695Z,6.00
2023-03-06T13:48:33.707Z,6.60
2023-03-06T13:50:47.669Z,7.20
2023-03-06T13:53:20.271Z,7.40
2023-03-06T13:56:23.485Z,7.70
2023-03-06T13:59:21.039Z,8.20
2023-03-06T14:02:14.951Z,7.90
2023-03-06T14:04:54.127Z,8.40
2023-03-06T14:07:33.469Z,8.80
2023-03-06T14:10:15.103Z,8.60
2023-03-06T14:12:58.167Z,8.40
2023-03-06T14:15:40.776Z,8.20
2023-03-06T14:18:23.916Z,8.20
2023-03-06T14:20:58.899Z,8.10
2023-03-06T14:23:43.314Z,8.20
2023-03-06T14:26:19.814Z,7.80
2023-03-06T14:28:58.545Z,7.30
2023-03-06T14:31:30.516Z,7.10
2023-03-06T14:33:59.417Z,6.90
2023-03-06T14:36:36.104Z,6.80
2023-03-06T14:39:10.540Z,7.00
2023-03-06T14:41:37.826Z,7.00
2023-03-06T14:44:22.599Z,7.00
2023-03-06T14:46:55.046Z,6.80
2023-03-06T14:49:23.733Z,6.90
2023-03-06T14:51:52.811Z,6.90
2023-03-06T14:54:24.464Z,6.80
2023-03-06T14:56:55.075Z,7.00
2023-03-06T14:59:26.116Z,6.70
2023-03-06T15:01:58.875Z,6.80
2023-03-06T15:04:43.845Z,6.60
2023-03-06T15:07:20.927Z,6.70
2023-03-06T15:09:51.130Z,6.30
2023-03-06T15:12:20.814Z,6.40
2023-03-06T15:15:04.021Z,6.00
2023-03-06T15:17:39.643Z,6.00
2023-03-06T15:20:27.216Z,5.80
2023-03-06T15:22:53.819Z,5.90
2023-03-06T15:25:26.616Z,6.00
2023-03-06T15:28:20.099Z,6.10
2023-03-06T15:31:02.022Z,6.10
2023-03-06T15:33:28.693Z,6.20
2023-03-06T15:36:01.972Z,6.00
2023-03-06T15:38:41.980Z,6.40
2023-03-06T15:41:31.425Z,6.10
2023-03-06T15:43:58.839Z,6.10
2023-03-06T15:46:25.474Z,6.10
2023-03-06T15:48:53.490Z,6.00
2023-03-06T15:51:20.250Z,6.10
2023-03-06T15:53:46.875Z,6.10
2023-03-06T15:56:13.950Z,6.10
2023-03-06T15:58:40.959Z,6.00
2023-03-06T16:01:08.070Z,5.80
2023-03-06T16:03:34.618Z,5.70
2023-03-06T16:06:01.222Z,5.80
2023-03-06T16:08:28.731Z,5.80
2023-03-06T16:10:55.435Z,5.60
2023-03-06T16:13:26.246Z,5.50
2023-03-06T16:15:52.773Z,5.30
2023-03-06T16:18:19.309Z,5.20
2023-03-06T16:20:46.354Z,5.20
2023-03-06T16:23:13.065Z,5.20
2023-03-06T16:25:40.664Z,5.20
2023-03-06T16:28:11.855Z,5.10
2023-03-06T16:30:38.537Z,5.00
2023-03-06T16:33:05.208Z,4.80
2023-03-06T16:35:31.907Z,4.70
2023-03-06T16:37:59.797Z,4.60
2023-03-06T16:40:28.152Z,4.50
2023-03-06T16:42:55.368Z,4.50
2023-03-06T16:45:22.699Z,4.40
2023-03-06T16:47:49.277Z,4.30
2023-03-06T16:50:23.577Z,4.20
2023-03-06T16:52:50.178Z,4.20
2023-03-06T16:55:16.788Z,4.00
2023-03-06T16:57:43.357Z,4.00
2023-03-06T17:00:11.308Z,4.00
2023-03-06T17:02:38.411Z,3.90
2023-03-06T17:05:05.537Z,3.80
2023-03-06T17:07:32.818Z,3.70
2023-03-06T17:09:59.511Z,3.60
2023-03-06T17:12:26.159Z,3.60
2023-03-06T17:14:53.208Z,3.50
2023-03-06T17:17:19.938Z,3.40
2023-03-06T17:19:47.675Z,3.30
2023-03-06T17:22:15.780Z,3.20
2023-03-06T17:24:42.421Z,3.20
2023-03-06T17:27:09.443Z,3.20
2023-03-06T17:29:36.063Z,3.20
2023-03-06T17:32:03.257Z,3.20
2023-03-06T17:34:30.133Z,3.20
2023-03-06T17:36:56.857Z,3.20
2023-03-06T17:39:23.486Z,3.20
2023-03-06T17:41:50.078Z,3.20
2023-03-06T17:44:16.703Z,3.20
2023-03-06T17:46:43.938Z,3.10
2023-03-06T17:49:10.803Z,3.10
2023-03-06T17:51:37.652Z,3.10
2023-03-06T17:54:04.342Z,3.10
2023-03-06T17:56:30.993Z,3.10
2023-03-06T17:58:57.658Z,3.00
2023-03-06T18:01:27.433Z,3.00
2023-03-06T18:03:54.435Z,2.90
2023-03-06T18:06:22.084Z,2.90
2023-03-06T18:08:52.289Z,2.80
2023-03-06T18:11:20.107Z,2.70
2023-03-06T18:13:46.758Z,2.60
2023-03-06T18:16:16.241Z,2.60
2023-03-06T18:18:43.174Z,2.60
2023-03-06T18:21:11.268Z,2.50
2023-03-06T18:23:38.232Z,2.60
2023-03-06T18:26:05.736Z,2.60
2023-03-06T18:28:32.312Z,2.50
2023-03-06T18:30:58.834Z,2.40
2023-03-06T18:33:25.362Z,2.40
2023-03-06T18:35:51.944Z,2.40
2023-03-06T18:38:18.700Z,2.30
2023-03-06T18:40:46.123Z,2.30
2023-03-06T18:43:12.703Z,2.30
2023-03-06T18:45:39.326Z,2.30
2023-03-06T18:48:06.142Z,2.30
2023-03-06T18:50:34.679Z,2.30
2023-03-06T18:53:01.274Z,2.20
2023-03-06T18:55:27.860Z,2.30
2023-03-06T18:57:54.458Z,2.30
2023-03-06T19:00:21.446Z,2.20
2023-03-06T19:02:48.043Z,2.20
2023-03-06T19:05:14.642Z,2.20
2023-03-06T19:07:41.215Z,2.10
2023-03-06T19:10:08.331Z,2.10
2023-03-06T19:12:35.520Z,2.10
2023-03-06T19:15:03.539Z,2.20
2023-03-06T19:17:31.523Z,2.20
2023-03-06T19:19:58.139Z,2.20
2023-03-06T19:22:24.896Z,2.30
2023-03-06T19:24:51.511Z,2.30
2023-03-06T19:27:18.225Z,2.30
2023-03-06T19:29:44.870Z,2.30
2023-03-06T19:32:11.551Z,2.30
2023-03-06T19:34:38.255Z,2.30
2023-03-06T19:37:04.829Z,2.30
2023-03-06T19:39:31.364Z,2.30
2023-03-06T19:41:57.942Z,2.30
2023-03-06T19:44:24.580Z,2.40
2023-03-06T19:46:51.299Z,2.40
2023-03-06T19:49:18.140Z,2.50
2023-03-06T19:51:44.847Z,2.50
2023-03-06T19:54:12.610Z,2.50
2023-03-06T19:56:40.696Z,2.60
2023-03-06T19:59:07.320Z,2.60
2023-03-06T20:01:34.314Z,2.60
2023-03-06T20:04:01.207Z,2.60
2023-03-06T20:06:30.121Z,2.70
2023-03-06T20:08:56.974Z,2.70
2023-03-06T20:11:26.265Z,2.70
2023-03-06T20:13:53.116Z,2.60
2023-03-06T20:16:19.832Z,2.60
2023-03-06T20:18:46.642Z,2.50
2023-03-06T20:21:13.782Z,2.50
2023-03-06T20:23:40.406Z,2.50
2023-03-06T20:26:14.815Z,2.50
2023-03-06T20:28:41.655Z,2.50
2023-03-06T20:31:09.098Z,2.50
2023-03-06T20:33:35.704Z,2.50
2023-03-06T20:36:02.583Z,2.50
2023-03-06T20:38:29.150Z,2.50
2023-03-06T20:40:57.677Z,2.50
2023-03-06T20:43:24.226Z,2.50
2023-03-06T20:45:57.689Z,2.60
2023-03-06T20:48:24.307Z,2.60
2023-03-06T20:51:01.038Z,2.60
2023-03-06T20:53:27.886Z,2.70
2023-03-06T20:55:54.483Z,2.70
2023-03-06T20:58:23.235Z,2.70
2023-03-06T21:00:50.783Z,2.70
2023-03-06T21:03:17.344Z,2.70
2023-03-06T21:05:45.884Z,2.70
2023-03-06T21:08:12.446Z,2.70
2023-03-06T21:10:38.978Z,2.70
2023-03-06T21:13:05.548Z,2.70
2023-03-06T21:15:32.119Z,2.70
2023-03-06T21:17:58.769Z,2.70
2023-03-06T21:20:25.322Z,2.60
2023-03-06T21:22:51.910Z,2.60
2023-03-06T21:25:18.511Z,2.60
2023-03-06T21:27:45.069Z,2.60
2023-03-06T21:30:12.278Z,2.60
2023-03-06T21:32:38.986Z,2.60
2023-03-06T21:35:05.925Z,2.60
2023-03-06T21:37:32.552Z,2.60
2023-03-06T21:40:00.104Z,2.50
2023-03-06T21:42:26.946Z,2.50
2023-03-06T21:44:53.517Z,2.50
2023-03-06T21:47:20.137Z,2.60
2023-03-06T21:49:48.702Z,2.60
2023-03-06T21:52:15.283Z,2.50
2023-03-06T21:54:41.995Z,2.50
2023-03-06T21:57:08.584Z,2.50
2023-03-06T21:59:36.428Z,2.60
2023-03-06T22:02:03.077Z,2.50
2023-03-06T22:04:29.769Z,2.50
2023-03-06T22:06:56.439Z,2.50
2023-03-06T22:09:23.128Z,2.50
2023-03-06T22:11:49.792Z,2.50
2023-03-06T22:14:16.377Z,2.50
2023-03-06T22:16:42.988Z,2.50
2023-03-06T22:19:09.642Z,2.50
2023-03-06T22:21:36.667Z,2.50
2023-03-06T22:24:04.462Z,2.50
2023-03-06T22:26:31.081Z,2.50
2023-03-06T22:28:57.711Z,2.50
2023-03-06T22:31:26.924Z,2.50
2023-03-06T22:33:54.987Z,2.50
2023-03-06T22:36:22.692Z,2.50
2023-03-06T22:38:53.609Z,2.50
2023-03-06T22:41:20.765Z,2.60
2023-03-06T22:43:47.549Z,2.60
2023-03-06T22:46:16.578Z,2.60
2023-03-06T22:48:43.751Z,2.60
2023-03-06T22:51:16.629Z,2.60
2023-03-06T22:53:44.127Z,2.60
2023-03-06T22:56:14.158Z,2.60
2023-03-06T22:58:40.978Z,2.60
2023-03-06T23:01:10.240Z,2.60
2023-03-06T23:03:38.801Z,2.60
2023-03-06T23:06:09.076Z,2.60
2023-03-06T23:08:35.816Z,2.60
2023-03-06T23:11:02.751Z,2.60
2023-03-06T23:13:48.006Z,2.60
2023-03-06T23:16:33.208Z,2.60
2023-03-06T23:19:18.359Z,2.60
2023-03-06T23:22:03.547Z,2.60
2023-03-06T23:24:48.843Z,2.50
2023-03-06T23:27:15.594Z,2.50
2023-03-06T23:29:42.145Z,2.60
2023-03-06T23:32:08.795Z,2.60
2023-03-06T23:34:35.381Z,2.50
2023-03-06T23:37:01.918Z,2.50
2023-03-06T23:39:28.576Z,2.50
2023-03-06T23:41:55.130Z,2.50
2023-03-06T23:44:21.657Z,2.50
2023-03-06T23:46:48.247Z,2.50
2023-03-06T23:49:14.971Z,2.40
2023-03-06T23:51:41.495Z,2.30
2023-03-06T23:54:09.741Z,2.30
2023-03-06T23:56:36.273Z,2.30
2023-03-06T23:59:02.829Z,2.30
